Time;durP1;ratioP1;P1;durP2;ratioP2;P2;SDS_P1;SDS_P2;PMS_P1;PMS_P2;Temp;Humidity;BMP_temperature;BMP_pressure;BME280_temperature;BME280_humidity;BME280_pressure;Samples;Min_cycle;Max_cycle;Signal;HPM_P1;HPM_P2
2023/05/02 00:01:12;;;;;;;28.90;17.27;;;;;;;;;;5031366;28;20053;-68
2023/05/02 00:03:38;;;;;;;29.83;17.10;;;;;;;;;;5059174;28;20071;-68
2023/05/02 00:06:03;;;;;;;28.17;15.47;;;;;;;;;;5072483;28;20016;-68
2023/05/02 00:08:30;;;;;;;35.10;16.07;;;;;;;;;;5071448;28;20055;-68
2023/05/02 00:10:55;;;;;;;27.90;15.63;;;;;;;;;;5071809;28;20464;-68
2023/05/02 00:13:20;;;;;;;26.17;15.53;;;;;;;;;;5070747;28;20040;-68
2023/05/02 00:15:45;;;;;;;29.43;15.50;;;;;;;;;;5070410;28;20123;-68
2023/05/02 00:18:11;;;;;;;31.27;16.47;;;;;;;;;;5070608;28;20030;-68
2023/05/02 00:20:38;;;;;;;28.00;15.80;;;;;;;;;;5072145;28;20419;-68
2023/05/02 00:23:03;;;;;;;28.03;15.23;;;;;;;;;;5071402;28;20025;-68
2023/05/02 00:25:29;;;;;;;27.73;15.93;;;;;;;;;;5071981;28;20097;-68
2023/05/02 00:27:54;;;;;;;30.57;16.40;;;;;;;;;;5071289;28;20028;-69
2023/05/02 00:30:20;;;;;;;29.93;15.67;;;;;;;;;;5070195;28;20036;-66
2023/05/02 00:32:45;;;;;;;29.97;15.63;;;;;;;;;;5071675;28;20059;-68
2023/05/02 00:35:10;;;;;;;27.13;16.23;;;;;;;;;;5070270;28;20142;-68
2023/05/02 00:37:36;;;;;;;32.70;16.23;;;;;;;;;;5071107;28;20095;-68
2023/05/02 00:40:02;;;;;;;29.40;16.07;;;;;;;;;;5072784;28;20468;-68
2023/05/02 00:42:30;;;;;;;31.47;16.93;;;;;;;;;;5064665;28;20021;-68
2023/05/02 00:44:55;;;;;;;35.17;17.00;;;;;;;;;;5065760;28;20500;-68
2023/05/02 00:47:21;;;;;;;32.47;16.23;;;;;;;;;;5065861;28;20097;-68
2023/05/02 00:49:46;;;;;;;34.80;17.50;;;;;;;;;;5057660;28;20017;-68
2023/05/02 00:52:12;;;;;;;33.83;17.03;;;;;;;;;;5061020;28;20024;-68
2023/05/02 00:54:38;;;;;;;33.50;17.20;;;;;;;;;;5064280;28;20038;-68
2023/05/02 00:57:03;;;;;;;30.83;16.80;;;;;;;;;;5065224;28;20039;-68
2023/05/02 00:59:29;;;;;;;34.00;16.80;;;;;;;;;;5071251;28;20469;-68
2023/05/02 01:02:09;;;;;;;33.43;18.00;;;;;;;;;;5067644;28;20024;-68
2023/05/02 01:04:52;;;;;;;31.20;15.77;;;;;;;;;;5067199;28;20028;-68
2023/05/02 01:07:50;;;;;;;33.93;17.50;;;;;;;;;;5069336;28;20052;-68
2023/05/02 01:10:51;;;;;;;34.33;16.73;;;;;;;;;;5034565;28;20043;-68
2023/05/02 01:13:21;;;;;;;36.13;18.23;;;;;;;;;;5004459;28;20029;-68
2023/05/02 01:15:47;;;;;;;34.03;17.80;;;;;;;;;;4999850;28;20068;-68
2023/05/02 01:18:15;;;;;;;34.00;17.20;;;;;;;;;;5002203;28;20029;-68
2023/05/02 01:20:42;;;;;;;31.07;17.50;;;;;;;;;;5006174;28;20241;-68
2023/05/02 01:23:15;;;;;;;33.43;17.53;;;;;;;;;;5004355;28;20029;-68
2023/05/02 01:26:01;;;;;;;34.90;17.60;;;;;;;;;;5005402;28;20042;-68
2023/05/02 01:28:47;;;;;;;36.57;17.97;;;;;;;;;;4989858;28;20105;-68
2023/05/02 01:31:14;;;;;;;34.80;18.37;;;;;;;;;;5004763;28;20064;-68
2023/05/02 01:33:39;;;;;;;36.60;17.60;;;;;;;;;;5004599;28;20378;-68
2023/05/02 01:36:06;;;;;;;37.40;17.53;;;;;;;;;;5004461;28;20028;-68
2023/05/02 01:38:32;;;;;;;35.73;17.60;;;;;;;;;;5009164;28;20018;-68
2023/05/02 01:41:02;;;;;;;33.40;16.43;;;;;;;;;;5001745;28;20034;-68
2023/05/02 01:43:28;;;;;;;33.27;16.73;;;;;;;;;;5002652;28;20022;-68
2023/05/02 01:45:54;;;;;;;31.80;16.37;;;;;;;;;;5001347;28;20545;-68
2023/05/02 01:48:21;;;;;;;35.30;16.90;;;;;;;;;;5060296;28;20037;-68
2023/05/02 01:50:47;;;;;;;26.90;13.30;;;;;;;;;;5066951;28;20480;-68
2023/05/02 01:53:13;;;;;;;24.27;12.00;;;;;;;;;;5071004;28;20020;-68
2023/05/02 01:55:40;;;;;;;24.13;11.97;;;;;;;;;;5069373;28;20017;-68
2023/05/02 01:58:06;;;;;;;23.60;11.20;;;;;;;;;;5066918;28;20056;-68
2023/05/02 02:00:32;;;;;;;25.37;11.30;;;;;;;;;;5068824;28;20476;-68
2023/05/02 02:02:58;;;;;;;23.93;12.57;;;;;;;;;;5066672;28;20071;-69
2023/05/02 02:05:24;;;;;;;29.20;12.53;;;;;;;;;;5064739;28;20713;-68
2023/05/02 02:07:50;;;;;;;26.67;12.90;;;;;;;;;;5074258;28;20020;-68
2023/05/02 02:10:15;;;;;;;25.97;12.60;;;;;;;;;;5071206;28;20495;-68
2023/05/02 02:12:42;;;;;;;26.63;11.93;;;;;;;;;;5074936;28;20029;-68
2023/05/02 02:15:30;;;;;;;28.67;12.40;;;;;;;;;;5067691;28;20028;-68
2023/05/02 02:18:14;;;;;;;25.40;12.33;;;;;;;;;;5058893;28;20476;-68
2023/05/02 02:20:42;;;;;;;27.47;12.43;;;;;;;;;;5072089;28;20049;-68
2023/05/02 02:23:08;;;;;;;28.90;12.70;;;;;;;;;;5072304;28;20039;-68
2023/05/02 02:25:33;;;;;;;31.67;14.33;;;;;;;;;;5072461;28;20385;-68
2023/05/02 02:27:59;;;;;;;30.37;13.00;;;;;;;;;;5069988;28;20077;-68
2023/05/02 02:30:25;;;;;;;32.90;13.53;;;;;;;;;;5073465;28;20392;-68
2023/05/02 02:32:51;;;;;;;29.23;12.43;;;;;;;;;;5071574;28;20031;-68
2023/05/02 02:35:16;;;;;;;27.03;12.80;;;;;;;;;;5067789;28;20443;-68
2023/05/02 02:38:02;;;;;;;29.80;12.40;;;;;;;;;;5071332;28;20112;-68
2023/05/02 02:40:28;;;;;;;25.30;12.83;;;;;;;;;;4990289;28;20385;-68
2023/05/02 02:43:14;;;;;;;26.87;11.77;;;;;;;;;;4990993;28;20035;-64
2023/05/02 02:46:11;;;;;;;24.50;11.63;;;;;;;;;;4933887;29;20091;-66
2023/05/02 02:48:57;;;;;;;23.40;10.83;;;;;;;;;;4889978;29;20428;-68
2023/05/02 02:51:36;;;;;;;24.27;11.17;;;;;;;;;;4923076;29;20043;-68
2023/05/02 02:54:25;;;;;;;27.77;11.77;;;;;;;;;;4930984;29;20028;-68
2023/05/02 02:56:57;;;;;;;23.90;10.13;;;;;;;;;;4923305;29;20411;-68
2023/05/02 02:59:25;;;;;;;20.80;10.50;;;;;;;;;;4934493;29;20032;-68
2023/05/02 03:02:10;;;;;;;22.53;10.50;;;;;;;;;;4932526;29;20086;-66
2023/05/02 03:04:40;;;;;;;18.10;8.93;;;;;;;;;;4932938;29;20103;-66
2023/05/02 03:07:06;;;;;;;14.30;7.80;;;;;;;;;;4933391;28;20036;-68
2023/05/02 03:09:44;;;;;;;16.13;7.17;;;;;;;;;;4933604;29;20047;-68
2023/05/02 03:12:10;;;;;;;13.97;7.33;;;;;;;;;;4930527;29;20419;-68
2023/05/02 03:14:35;;;;;;;12.17;8.60;;;;;;;;;;4931301;29;20035;-69
2023/05/02 03:17:01;;;;;;;13.97;9.87;;;;;;;;;;4982621;28;20076;-69
2023/05/02 03:19:26;;;;;;;12.23;8.97;;;;;;;;;;4984839;28;20109;-68
2023/05/02 03:21:51;;;;;;;12.23;7.20;;;;;;;;;;5021320;28;20028;-68
2023/05/02 03:24:17;;;;;;;10.67;5.13;;;;;;;;;;5033071;28;20049;-68
2023/05/02 03:26:42;;;;;;;8.27;4.67;;;;;;;;;;5031307;28;20517;-68
2023/05/02 03:29:07;;;;;;;7.73;3.70;;;;;;;;;;5033419;28;20048;-68
2023/05/02 03:31:33;;;;;;;7.43;3.40;;;;;;;;;;5031770;28;20489;-69
2023/05/02 03:33:58;;;;;;;10.50;3.70;;;;;;;;;;5031134;28;20022;-69
2023/05/02 03:36:23;;;;;;;13.83;4.47;;;;;;;;;;5029137;28;20029;-69
2023/05/02 03:38:49;;;;;;;14.37;4.27;;;;;;;;;;5028352;28;20014;-68
2023/05/02 03:41:15;;;;;;;12.67;3.70;;;;;;;;;;5030036;28;20367;-68
2023/05/02 03:43:40;;;;;;;12.97;4.13;;;;;;;;;;5026267;28;20047;-69
2023/05/02 03:46:06;;;;;;;14.07;4.20;;;;;;;;;;5023755;28;20469;-69
2023/05/02 03:48:32;;;;;;;23.73;5.20;;;;;;;;;;5026063;28;20035;-69
2023/05/02 03:50:57;;;;;;;10.80;3.60;;;;;;;;;;5027103;28;20017;-69
2023/05/02 03:53:23;;;;;;;14.53;4.07;;;;;;;;;;5030408;28;20029;-69
2023/05/02 03:55:48;;;;;;;16.60;4.00;;;;;;;;;;5028197;28;20069;-69
2023/05/02 03:58:14;;;;;;;10.07;3.57;;;;;;;;;;5030303;28;20595;-69
2023/05/02 04:00:39;;;;;;;14.33;3.70;;;;;;;;;;5030447;28;20115;-68
2023/05/02 04:03:04;;;;;;;12.50;3.50;;;;;;;;;;5044776;28;20048;-69
2023/05/02 04:05:30;;;;;;;10.17;3.50;;;;;;;;;;5066007;28;20028;-69
2023/05/02 04:07:58;;;;;;;17.73;5.00;;;;;;;;;;5071230;28;20021;-69
2023/05/02 04:10:23;;;;;;;14.87;4.37;;;;;;;;;;5072465;28;20388;-69
2023/05/02 04:12:49;;;;;;;15.80;4.13;;;;;;;;;;5067828;28;20024;-69
2023/05/02 04:15:14;;;;;;;19.93;4.27;;;;;;;;;;5060106;28;20512;-69
2023/05/02 04:17:40;;;;;;;12.17;4.00;;;;;;;;;;5064592;28;20686;-69
2023/05/02 04:20:05;;;;;;;15.63;4.67;;;;;;;;;;5063822;28;20027;-68
2023/05/02 04:22:31;;;;;;;16.90;5.30;;;;;;;;;;5070550;28;20020;-69
2023/05/02 04:24:57;;;;;;;20.07;5.33;;;;;;;;;;5065308;28;20017;-69
2023/05/02 04:27:22;;;;;;;18.17;6.03;;;;;;;;;;5070770;28;20032;-69
2023/05/02 04:29:48;;;;;;;16.23;5.33;;;;;;;;;;5065875;28;20487;-69
2023/05/02 04:32:14;;;;;;;15.93;5.70;;;;;;;;;;5067452;28;20032;-69
2023/05/02 04:34:39;;;;;;;16.80;4.77;;;;;;;;;;5072189;28;20442;-69
2023/05/02 04:37:05;;;;;;;19.43;4.43;;;;;;;;;;5045714;28;20020;-69
2023/05/02 04:39:30;;;;;;;17.30;4.97;;;;;;;;;;5062841;28;20013;-68
2023/05/02 04:41:55;;;;;;;17.83;4.33;;;;;;;;;;5067130;28;20056;-69
2023/05/02 04:44:21;;;;;;;15.97;4.50;;;;;;;;;;5063347;28;20052;-68
2023/05/02 04:46:46;;;;;;;18.50;5.03;;;;;;;;;;5064712;28;20031;-69
2023/05/02 04:49:11;;;;;;;15.83;4.43;;;;;;;;;;5067681;28;20020;-69
2023/05/02 04:51:37;;;;;;;17.90;4.17;;;;;;;;;;5059470;28;20557;-69
2023/05/02 04:54:02;;;;;;;18.30;4.20;;;;;;;;;;5067336;28;20464;-68
2023/05/02 04:56:27;;;;;;;20.13;4.13;;;;;;;;;;5069821;28;20040;-69
2023/05/02 04:58:53;;;;;;;18.07;3.90;;;;;;;;;;5068827;28;20119;-68
2023/05/02 05:01:18;;;;;;;17.07;4.57;;;;;;;;;;5063955;28;20480;-68
2023/05/02 05:03:43;;;;;;;18.27;4.13;;;;;;;;;;5060985;28;20056;-69
2023/05/02 05:06:09;;;;;;;20.07;5.13;;;;;;;;;;5066492;28;20025;-69
2023/05/02 05:08:34;;;;;;;18.33;4.23;;;;;;;;;;5065226;28;20043;-69
2023/05/02 05:10:59;;;;;;;22.00;4.30;;;;;;;;;;5060465;28;20041;-68
2023/05/02 05:13:24;;;;;;;17.30;4.37;;;;;;;;;;5060045;28;20322;-69
2023/05/02 05:15:50;;;;;;;23.57;4.40;;;;;;;;;;5056469;28;20029;-69
2023/05/02 05:18:15;;;;;;;17.57;4.23;;;;;;;;;;5063113;28;20028;-69
2023/05/02 05:20:40;;;;;;;15.40;4.07;;;;;;;;;;5063999;28;20464;-67
2023/05/02 05:23:06;;;;;;;21.43;4.00;;;;;;;;;;5066716;28;20024;-67
2023/05/02 05:25:32;;;;;;;22.77;3.73;;;;;;;;;;5070932;28;20448;-67
2023/05/02 05:27:58;;;;;;;20.27;4.20;;;;;;;;;;5072485;28;20580;-67
2023/05/02 05:30:24;;;;;;;20.23;3.80;;;;;;;;;;5072607;28;20028;-67
2023/05/02 05:32:49;;;;;;;21.27;4.27;;;;;;;;;;5072241;28;20029;-67
2023/05/02 05:35:15;;;;;;;20.60;4.00;;;;;;;;;;5071683;28;20024;-67
2023/05/02 05:37:40;;;;;;;18.30;4.50;;;;;;;;;;5071355;28;20061;-67
2023/05/02 05:40:06;;;;;;;14.53;4.30;;;;;;;;;;5072492;28;20024;-67
2023/05/02 05:42:31;;;;;;;21.17;5.30;;;;;;;;;;5076193;28;20024;-67
2023/05/02 05:44:57;;;;;;;18.90;5.03;;;;;;;;;;5076549;28;20070;-67
2023/05/02 05:47:22;;;;;;;15.27;3.67;;;;;;;;;;5074223;28;20373;-67
2023/05/02 05:49:51;;;;;;;19.30;3.70;;;;;;;;;;5074749;28;20032;-67
2023/05/02 05:52:16;;;;;;;19.40;3.90;;;;;;;;;;5074254;28;20024;-67
2023/05/02 05:54:41;;;;;;;13.70;3.43;;;;;;;;;;5075975;28;20082;-67
2023/05/02 05:57:07;;;;;;;16.77;3.53;;;;;;;;;;5075606;28;20020;-67
2023/05/02 05:59:33;;;;;;;14.50;3.40;;;;;;;;;;5075624;28;20059;-67
2023/05/02 06:01:59;;;;;;;19.00;3.40;;;;;;;;;;5073984;28;20024;-67
2023/05/02 06:04:24;;;;;;;13.03;3.40;;;;;;;;;;5075503;28;20081;-67
2023/05/02 06:06:50;;;;;;;20.10;4.00;;;;;;;;;;5075568;28;20037;-67
2023/05/02 06:09:15;;;;;;;13.80;3.57;;;;;;;;;;5075468;28;20441;-67
2023/05/02 06:11:40;;;;;;;13.67;3.03;;;;;;;;;;5076080;28;20047;-67
2023/05/02 06:14:06;;;;;;;15.17;3.77;;;;;;;;;;5075237;28;20029;-67
2023/05/02 06:16:31;;;;;;;14.63;3.43;;;;;;;;;;5075413;28;20052;-67
2023/05/02 06:18:56;;;;;;;22.53;3.70;;;;;;;;;;5075807;28;20461;-68
2023/05/02 06:21:22;;;;;;;17.77;3.53;;;;;;;;;;5074655;28;20032;-68
2023/05/02 06:23:47;;;;;;;15.70;3.77;;;;;;;;;;5075843;28;20381;-68
2023/05/02 06:26:12;;;;;;;16.60;3.47;;;;;;;;;;5075152;28;20036;-67
2023/05/02 06:28:38;;;;;;;12.93;3.40;;;;;;;;;;5074795;28;20032;-68
2023/05/02 06:31:04;;;;;;;15.53;3.10;;;;;;;;;;5075295;28;20025;-67
2023/05/02 06:33:30;;;;;;;9.33;2.70;;;;;;;;;;5075004;28;20032;-67
2023/05/02 06:35:55;;;;;;;11.43;2.80;;;;;;;;;;5075693;28;20468;-68
2023/05/02 06:38:21;;;;;;;10.47;2.30;;;;;;;;;;5074786;28;20028;-68
2023/05/02 06:40:46;;;;;;;10.10;2.60;;;;;;;;;;5075019;28;20100;-68
2023/05/02 06:43:12;;;;;;;8.70;2.10;;;;;;;;;;5075031;28;20024;-67
2023/05/02 06:45:37;;;;;;;12.60;2.53;;;;;;;;;;5075713;28;20040;-68
2023/05/02 06:48:02;;;;;;;16.00;2.83;;;;;;;;;;5075668;28;20067;-67
2023/05/02 06:50:28;;;;;;;13.10;2.37;;;;;;;;;;5075427;28;20029;-69
2023/05/02 06:52:53;;;;;;;13.83;3.07;;;;;;;;;;5074415;28;20023;-67
2023/05/02 06:55:18;;;;;;;11.80;2.60;;;;;;;;;;5075644;28;20048;-68
2023/05/02 06:57:44;;;;;;;11.50;2.40;;;;;;;;;;5075028;28;20040;-67
2023/05/02 07:00:09;;;;;;;12.40;3.00;;;;;;;;;;5075270;28;20025;-68
2023/05/02 07:02:35;;;;;;;12.57;2.40;;;;;;;;;;5087125;28;20048;-67
2023/05/02 07:05:00;;;;;;;13.80;3.10;;;;;;;;;;5095763;28;20375;-67
2023/05/02 07:07:25;;;;;;;13.40;3.47;;;;;;;;;;5095506;28;20036;-67
2023/05/02 07:09:51;;;;;;;14.97;3.10;;;;;;;;;;5095327;28;20053;-67
2023/05/02 07:12:16;;;;;;;16.10;3.17;;;;;;;;;;5095268;28;20103;-67
2023/05/02 07:14:42;;;;;;;17.07;3.30;;;;;;;;;;5092983;28;20032;-68
2023/05/02 07:17:07;;;;;;;11.97;3.10;;;;;;;;;;5074205;28;20039;-68
2023/05/02 07:19:33;;;;;;;18.63;3.13;;;;;;;;;;5075376;28;20024;-67
2023/05/02 07:21:58;;;;;;;18.47;3.67;;;;;;;;;;5074916;28;20017;-68
2023/05/02 07:24:23;;;;;;;13.43;2.63;;;;;;;;;;5073649;28;20033;-67
2023/05/02 07:26:48;;;;;;;13.83;3.43;;;;;;;;;;5074280;28;20111;-68
2023/05/02 07:29:14;;;;;;;19.17;3.00;;;;;;;;;;5074532;28;20034;-68
2023/05/02 07:31:39;;;;;;;11.33;2.77;;;;;;;;;;5073871;28;20032;-67
2023/05/02 07:34:04;;;;;;;11.33;3.07;;;;;;;;;;5056111;28;20021;-67
2023/05/02 07:36:30;;;;;;;13.87;3.03;;;;;;;;;;5073995;28;20039;-68
2023/05/02 07:38:55;;;;;;;16.13;2.53;;;;;;;;;;5073189;28;20468;-67
2023/05/02 07:41:20;;;;;;;14.60;3.10;;;;;;;;;;5073615;28;20028;-68
2023/05/02 07:43:46;;;;;;;10.70;2.47;;;;;;;;;;5074350;28;20029;-67
2023/05/02 07:46:11;;;;;;;12.63;3.47;;;;;;;;;;5074655;28;20028;-68
2023/05/02 07:48:36;;;;;;;10.27;2.43;;;;;;;;;;5073743;28;20491;-67
2023/05/02 07:51:05;;;;;;;10.37;2.80;;;;;;;;;;5073673;28;20035;-68
2023/05/02 07:53:31;;;;;;;8.27;2.27;;;;;;;;;;5074157;28;20493;-68
2023/05/02 07:55:56;;;;;;;7.93;2.30;;;;;;;;;;5073311;28;20032;-67
2023/05/02 07:58:21;;;;;;;10.90;2.80;;;;;;;;;;5073983;28;20032;-68
2023/05/02 08:00:47;;;;;;;12.43;2.87;;;;;;;;;;5072387;28;20095;-68
2023/05/02 08:03:12;;;;;;;7.53;2.40;;;;;;;;;;5073113;28;20053;-68
2023/05/02 08:05:37;;;;;;;9.37;2.43;;;;;;;;;;5074081;28;20111;-68
2023/05/02 08:08:03;;;;;;;8.50;2.33;;;;;;;;;;5073426;28;20082;-69
2023/05/02 08:10:28;;;;;;;9.93;2.60;;;;;;;;;;5073120;28;20404;-69
2023/05/02 08:12:53;;;;;;;17.17;2.60;;;;;;;;;;5073156;28;20063;-68
2023/05/02 08:15:18;;;;;;;10.60;2.60;;;;;;;;;;5073289;28;20024;-68
2023/05/02 08:17:44;;;;;;;9.40;2.37;;;;;;;;;;5073829;28;20058;-68
2023/05/02 08:20:09;;;;;;;11.80;2.33;;;;;;;;;;5072959;28;20020;-68
2023/05/02 08:22:35;;;;;;;9.97;2.60;;;;;;;;;;5073328;28;20028;-68
2023/05/02 08:25:00;;;;;;;8.63;2.05;;;;;;;;;;5073073;28;20062;-68
2023/05/02 08:27:26;;;;;;;10.75;2.53;;;;;;;;;;5073868;28;20082;-68
2023/05/02 08:29:51;;;;;;;7.35;2.45;;;;;;;;;;5072837;28;20557;-68
2023/05/02 08:32:16;;;;;;;10.37;2.40;;;;;;;;;;5073676;28;20115;-68
2023/05/02 08:34:41;;;;;;;11.27;2.37;;;;;;;;;;5072532;28;20099;-69
2023/05/02 08:37:08;;;;;;;7.75;2.20;;;;;;;;;;5072631;28;20458;-69
2023/05/02 08:39:33;;;;;;;11.10;2.45;;;;;;;;;;5072016;28;20020;-69
2023/05/02 08:41:58;;;;;;;7.45;2.53;;;;;;;;;;5073698;28;20480;-68
2023/05/02 08:44:24;;;;;;;11.65;3.05;;;;;;;;;;5072749;28;20032;-68
2023/05/02 08:46:49;;;;;;;11.52;2.85;;;;;;;;;;5073821;28;20024;-69
2023/05/02 08:49:15;;;;;;;11.38;2.33;;;;;;;;;;5073572;28;20383;-68
2023/05/02 08:51:41;;;;;;;7.90;2.30;;;;;;;;;;5073292;28;20044;-68
2023/05/02 08:54:08;;;;;;;8.18;2.13;;;;;;;;;;5073592;28;20434;-68
2023/05/02 08:56:33;;;;;;;9.00;2.20;;;;;;;;;;5073293;28;20376;-68
2023/05/02 08:58:59;;;;;;;8.45;2.20;;;;;;;;;;5073015;28;20029;-69
2023/05/02 09:01:27;;;;;;;8.82;2.50;;;;;;;;;;5071772;28;20025;-68
2023/05/02 09:03:54;;;;;;;11.63;2.95;;;;;;;;;;5072991;28;20518;-69
2023/05/02 09:06:21;;;;;;;11.43;2.78;;;;;;;;;;5073428;28;20031;-69
2023/05/02 09:08:48;;;;;;;8.52;2.10;;;;;;;;;;5072994;28;20038;-69
2023/05/02 09:11:13;;;;;;;9.07;2.20;;;;;;;;;;5073388;28;20035;-68
2023/05/02 09:13:45;;;;;;;8.70;2.20;;;;;;;;;;5072412;28;20016;-68
2023/05/02 09:16:12;;;;;;;9.05;2.20;;;;;;;;;;5071965;28;20024;-69
2023/05/02 09:18:38;;;;;;;7.88;2.08;;;;;;;;;;5072439;28;20380;-69
2023/05/02 09:21:08;;;;;;;7.40;2.17;;;;;;;;;;5072775;28;20417;-69
2023/05/02 09:23:40;;;;;;;7.85;2.03;;;;;;;;;;5072438;28;20042;-69
2023/05/02 09:26:18;;;;;;;9.95;2.20;;;;;;;;;;5071943;28;20032;-69
2023/05/02 09:28:45;;;;;;;8.32;2.05;;;;;;;;;;5070797;28;20029;-69
2023/05/02 09:31:11;;;;;;;10.18;2.20;;;;;;;;;;5069229;28;20468;-69
2023/05/02 09:33:38;;;;;;;6.47;1.95;;;;;;;;;;5071292;28;20077;-69
2023/05/02 09:36:03;;;;;;;7.82;2.10;;;;;;;;;;5072619;28;20052;-68
2023/05/02 09:38:29;;;;;;;5.57;1.90;;;;;;;;;;5073098;28;20040;-68
2023/05/02 09:40:55;;;;;;;7.68;2.35;;;;;;;;;;5071442;28;20029;-69
2023/05/02 09:43:20;;;;;;;6.22;2.22;;;;;;;;;;5072606;28;20028;-69
2023/05/02 09:45:55;;;;;;;11.23;2.75;;;;;;;;;;5070686;28;20089;-68
2023/05/02 09:48:20;;;;;;;5.25;1.80;;;;;;;;;;5072627;28;20032;-68
2023/05/02 09:50:46;;;;;;;7.32;2.30;;;;;;;;;;5072431;28;20369;-69
2023/05/02 09:53:11;;;;;;;10.30;2.47;;;;;;;;;;5071762;28;20036;-68
2023/05/02 09:55:36;;;;;;;8.63;2.10;;;;;;;;;;5071923;28;20035;-69
2023/05/02 09:58:02;;;;;;;8.38;2.20;;;;;;;;;;5071318;28;20428;-68
2023/05/02 10:00:37;;;;;;;9.93;2.40;;;;;;;;;;5072298;28;20031;-69
2023/05/02 10:03:05;;;;;;;6.13;2.17;;;;;;;;;;5069518;28;20044;-68
2023/05/02 10:05:30;;;;;;;12.77;2.35;;;;;;;;;;5071156;28;20036;-69
2023/05/02 10:07:55;;;;;;;9.55;2.83;;;;;;;;;;5072663;28;20392;-68
2023/05/02 10:10:21;;;;;;;9.50;2.30;;;;;;;;;;5071855;28;20179;-69
2023/05/02 10:12:47;;;;;;;9.75;2.30;;;;;;;;;;5071156;28;20025;-69
2023/05/02 10:15:14;;;;;;;9.88;2.40;;;;;;;;;;5071079;28;20021;-68
2023/05/02 10:17:42;;;;;;;8.85;2.15;;;;;;;;;;5072622;28;20077;-68
2023/05/02 10:20:07;;;;;;;10.75;2.97;;;;;;;;;;5071745;28;20028;-68
2023/05/02 10:22:34;;;;;;;9.38;2.20;;;;;;;;;;5071761;28;20406;-69
2023/05/02 10:25:00;;;;;;;7.50;2.38;;;;;;;;;;5071493;28;20031;-68
2023/05/02 10:27:26;;;;;;;8.13;1.92;;;;;;;;;;5071955;28;20039;-69
2023/05/02 10:29:51;;;;;;;7.55;2.05;;;;;;;;;;5075713;28;20472;-68
2023/05/02 10:32:17;;;;;;;6.38;2.40;;;;;;;;;;5075667;28;20044;-69
2023/05/02 10:34:42;;;;;;;9.05;2.42;;;;;;;;;;5074409;28;20090;-69
2023/05/02 10:37:08;;;;;;;7.43;2.30;;;;;;;;;;5075015;28;20475;-69
2023/05/02 10:39:33;;;;;;;6.95;2.30;;;;;;;;;;5074080;28;20032;-68
2023/05/02 10:42:01;;;;;;;12.50;2.80;;;;;;;;;;5074854;28;20020;-68
2023/05/02 10:44:33;;;;;;;8.60;2.72;;;;;;;;;;5070333;28;20032;-68
2023/05/02 10:46:58;;;;;;;8.02;2.80;;;;;;;;;;5075854;28;20028;-69
2023/05/02 10:49:26;;;;;;;13.07;2.80;;;;;;;;;;5075451;28;20468;-69
2023/05/02 10:51:51;;;;;;;8.45;2.60;;;;;;;;;;5075806;28;20155;-68
2023/05/02 10:54:20;;;;;;;8.18;2.53;;;;;;;;;;5075517;28;20033;-69
2023/05/02 10:57:05;;;;;;;6.38;1.90;;;;;;;;;;5074947;28;20590;-68
2023/05/02 10:59:37;;;;;;;7.85;2.08;;;;;;;;;;5075314;28;20016;-68
2023/05/02 11:02:24;;;;;;;7.90;1.80;;;;;;;;;;5073861;28;20043;-69
2023/05/02 11:05:02;;;;;;;8.63;2.45;;;;;;;;;;4993812;28;20038;-69
2023/05/02 11:07:28;;;;;;;4.63;1.63;;;;;;;;;;4993003;28;20043;-69
2023/05/02 11:10:12;;;;;;;7.00;2.03;;;;;;;;;;4993763;28;20132;-68
2023/05/02 11:13:03;;;;;;;5.95;1.65;;;;;;;;;;4993614;28;20101;-68
2023/05/02 11:15:49;;;;;;;6.28;2.00;;;;;;;;;;4990884;28;20117;-68
2023/05/02 11:18:15;;;;;;;6.28;1.98;;;;;;;;;;4983668;28;20038;-69
2023/05/02 11:20:41;;;;;;;5.57;1.70;;;;;;;;;;4993607;28;20080;-69
2023/05/02 11:23:23;;;;;;;4.65;1.73;;;;;;;;;;4992882;28;20034;-68
2023/05/02 11:25:53;;;;;;;5.65;1.73;;;;;;;;;;4993502;28;20081;-69
2023/05/02 11:28:49;;;;;;;7.72;1.50;;;;;;;;;;4993547;28;20041;-69
2023/05/02 11:31:46;;;;;;;4.22;1.58;;;;;;;;;;4992922;28;20049;-69
2023/05/02 11:34:11;;;;;;;7.00;2.05;;;;;;;;;;4954823;28;20034;-68
2023/05/02 11:36:37;;;;;;;5.97;1.67;;;;;;;;;;4991742;28;20034;-68
2023/05/02 11:39:04;;;;;;;4.95;1.60;;;;;;;;;;4977886;28;20022;-69
2023/05/02 11:41:39;;;;;;;4.72;1.48;;;;;;;;;;5019854;28;20028;-68
2023/05/02 11:44:04;;;;;;;3.55;1.10;;;;;;;;;;5073632;28;20451;-69
2023/05/02 11:46:30;;;;;;;5.07;1.50;;;;;;;;;;5073713;28;20082;-69
2023/05/02 11:48:55;;;;;;;4.35;1.23;;;;;;;;;;5074569;28;20063;-69
2023/05/02 11:51:24;;;;;;;3.28;1.23;;;;;;;;;;5073428;28;20025;-69
2023/05/02 11:53:49;;;;;;;5.10;1.00;;;;;;;;;;5072510;28;20066;-68
2023/05/02 11:56:15;;;;;;;4.05;1.10;;;;;;;;;;5072716;28;20028;-68
2023/05/02 11:58:40;;;;;;;4.18;1.10;;;;;;;;;;5073699;28;20062;-68
2023/05/02 12:01:13;;;;;;;3.30;1.10;;;;;;;;;;5071582;28;20021;-69
2023/05/02 12:03:38;;;;;;;4.05;1.10;;;;;;;;;;5073889;28;20044;-69
2023/05/02 12:06:14;;;;;;;5.40;1.15;;;;;;;;;;5071191;28;20025;-68
2023/05/02 12:08:40;;;;;;;6.25;1.20;;;;;;;;;;5073937;28;20074;-69
2023/05/02 12:11:05;;;;;;;4.57;1.42;;;;;;;;;;5073768;28;20032;-69
2023/05/02 12:13:31;;;;;;;5.00;1.27;;;;;;;;;;5074201;28;20021;-68
2023/05/02 12:15:56;;;;;;;4.03;1.30;;;;;;;;;;5071493;28;20037;-68
2023/05/02 12:18:22;;;;;;;5.13;1.33;;;;;;;;;;5072475;28;20016;-68
2023/05/02 12:20:48;;;;;;;5.90;1.80;;;;;;;;;;5073028;28;20017;-69
2023/05/02 12:23:14;;;;;;;5.55;1.50;;;;;;;;;;5074038;28;20472;-69
2023/05/02 12:25:40;;;;;;;4.00;1.70;;;;;;;;;;5073060;28;20025;-68
2023/05/02 12:28:06;;;;;;;3.72;1.25;;;;;;;;;;5073215;28;20024;-69
2023/05/02 12:30:32;;;;;;;2.95;1.10;;;;;;;;;;5072328;28;20099;-69
2023/05/02 12:33:01;;;;;;;5.20;1.40;;;;;;;;;;5073038;28;20059;-69
2023/05/02 12:35:27;;;;;;;4.45;1.13;;;;;;;;;;5072482;28;20446;-68
2023/05/02 12:37:53;;;;;;;6.28;1.75;;;;;;;;;;5072620;28;20028;-69
2023/05/02 12:40:18;;;;;;;3.80;1.20;;;;;;;;;;5072548;28;20520;-69
2023/05/02 12:42:57;;;;;;;5.15;1.38;;;;;;;;;;5075258;28;20103;-69
2023/05/02 12:45:23;;;;;;;4.05;1.30;;;;;;;;;;5072834;28;20090;-69
2023/05/02 12:47:49;;;;;;;3.95;1.23;;;;;;;;;;5085261;28;20048;-68
2023/05/02 12:50:15;;;;;;;5.55;1.20;;;;;;;;;;5092991;28;20050;-69
2023/05/02 12:52:56;;;;;;;4.68;1.55;;;;;;;;;;5093774;28;20059;-68
2023/05/02 12:55:23;;;;;;;5.60;1.60;;;;;;;;;;5085779;28;20106;-69
2023/05/02 12:57:48;;;;;;;8.35;1.73;;;;;;;;;;5073224;28;20045;-68
2023/05/02 13:00:16;;;;;;;5.65;1.48;;;;;;;;;;5087164;28;20036;-69
2023/05/02 13:02:41;;;;;;;6.20;1.90;;;;;;;;;;5071124;28;20162;-68
2023/05/02 13:05:19;;;;;;;4.90;1.90;;;;;;;;;;5068686;28;20021;-69
2023/05/02 13:07:44;;;;;;;4.88;1.63;;;;;;;;;;5067824;28;20025;-69
2023/05/02 13:10:10;;;;;;;3.28;1.50;;;;;;;;;;5072177;28;20058;-69
2023/05/02 13:12:37;;;;;;;4.30;1.48;;;;;;;;;;5072428;28;20476;-69
2023/05/02 13:15:06;;;;;;;6.15;1.90;;;;;;;;;;5069499;28;20043;-69
2023/05/02 13:17:32;;;;;;;4.80;1.80;;;;;;;;;;5065642;28;20030;-69
2023/05/02 13:19:57;;;;;;;7.35;1.90;;;;;;;;;;5063758;28;20384;-69
2023/05/02 13:22:23;;;;;;;6.65;1.48;;;;;;;;;;5062992;28;20039;-69
2023/05/02 13:24:48;;;;;;;6.78;1.85;;;;;;;;;;5063521;28;20017;-71
2023/05/02 13:27:14;;;;;;;4.47;1.73;;;;;;;;;;5064320;28;20028;-69
2023/05/02 13:29:39;;;;;;;4.93;1.65;;;;;;;;;;5065810;28;21232;-70
2023/05/02 13:32:05;;;;;;;6.90;1.50;;;;;;;;;;5067293;28;20380;-71
2023/05/02 13:34:30;;;;;;;5.53;1.50;;;;;;;;;;5069967;28;20029;-69
2023/05/02 13:36:55;;;;;;;5.25;1.60;;;;;;;;;;5069158;28;20039;-69
2023/05/02 13:39:20;;;;;;;5.78;1.50;;;;;;;;;;5069893;28;20031;-69
2023/05/02 13:41:46;;;;;;;6.68;1.67;;;;;;;;;;5072100;28;20357;-69
2023/05/02 13:44:11;;;;;;;5.60;1.60;;;;;;;;;;5070752;28;20373;-69
2023/05/02 13:46:37;;;;;;;8.48;1.98;;;;;;;;;;5066295;28;20021;-69
2023/05/02 13:49:02;;;;;;;5.97;1.88;;;;;;;;;;5071660;28;20024;-69
2023/05/02 13:51:30;;;;;;;6.03;1.60;;;;;;;;;;5068251;28;20021;-69
2023/05/02 13:53:55;;;;;;;5.28;1.48;;;;;;;;;;5069677;28;20496;-69
2023/05/02 13:56:20;;;;;;;6.40;1.70;;;;;;;;;;5067599;28;20037;-68
2023/05/02 13:58:46;;;;;;;4.07;1.63;;;;;;;;;;5065945;28;20028;-69
2023/05/02 14:01:11;;;;;;;10.00;1.75;;;;;;;;;;5068373;28;20104;-68
2023/05/02 14:03:36;;;;;;;6.83;1.50;;;;;;;;;;5075318;28;20044;-69
2023/05/02 14:06:02;;;;;;;7.60;2.20;;;;;;;;;;5073788;28;20029;-69
2023/05/02 14:08:27;;;;;;;5.40;1.40;;;;;;;;;;5073815;28;20086;-69
2023/05/02 14:10:52;;;;;;;5.73;1.90;;;;;;;;;;5073793;28;20021;-69
2023/05/02 14:13:18;;;;;;;4.60;1.37;;;;;;;;;;5071606;28;20024;-69
2023/05/02 14:15:43;;;;;;;5.60;1.60;;;;;;;;;;5072928;28;20025;-69
2023/05/02 14:18:08;;;;;;;5.33;1.50;;;;;;;;;;5074671;28;20082;-69
2023/05/02 14:20:34;;;;;;;7.53;1.47;;;;;;;;;;5069825;28;20069;-69
2023/05/02 14:22:59;;;;;;;6.25;1.35;;;;;;;;;;5074018;28;20025;-69
2023/05/02 14:25:25;;;;;;;6.38;1.73;;;;;;;;;;5065197;28;20032;-69
2023/05/02 14:27:50;;;;;;;6.80;1.48;;;;;;;;;;5060185;28;20016;-69
2023/05/02 14:30:15;;;;;;;5.93;1.40;;;;;;;;;;5062883;28;20085;-70
2023/05/02 14:32:41;;;;;;;7.35;1.60;;;;;;;;;;5071564;28;20066;-69
2023/05/02 14:35:06;;;;;;;7.30;1.30;;;;;;;;;;5073602;28;20368;-69